Time;durP1;ratioP1;P1;durP2;ratioP2;P2;SDS_P1;SDS_P2;PMS_P1;PMS_P2;Temp;Humidity;BMP_temperature;BMP_pressure;BME280_temperature;BME280_humidity;BME280_pressure;Samples;Min_cycle;Max_cycle;Signal;HPM_P1;HPM_P2
2022/09/14 00:01:24;;;;;;;0.90;0.60;;;20.20;99.90;;;;;;5073819;28;20444;-79
2022/09/14 00:03:53;;;;;;;1.20;0.67;;;20.30;99.90;;;;;;5073864;28;20475;-79
2022/09/14 00:06:21;;;;;;;0.70;0.70;;;20.30;99.90;;;;;;5073784;28;20440;-79
2022/09/14 00:08:51;;;;;;;0.70;0.70;;;20.30;99.90;;;;;;5073423;28;20449;-79
2022/09/14 00:11:18;;;;;;;0.73;0.57;;;20.30;99.90;;;;;;5073408;28;20452;-79
2022/09/14 00:13:47;;;;;;;0.80;0.80;;;20.40;99.90;;;;;;5073051;28;20519;-79
2022/09/14 00:16:15;;;;;;;0.60;0.60;;;20.40;99.90;;;;;;5073496;28;20488;-79
2022/09/14 00:18:42;;;;;;;0.70;0.70;;;20.40;99.90;;;;;;5073874;28;20444;-79
2022/09/14 00:21:11;;;;;;;0.70;0.67;;;20.40;99.90;;;;;;5073578;28;20456;-79
2022/09/14 00:23:40;;;;;;;0.73;0.50;;;20.40;99.90;;;;;;5073206;28;20995;-79
2022/09/14 00:26:08;;;;;;;0.80;0.70;;;20.40;99.90;;;;;;5073528;28;20444;-79
2022/09/14 00:28:38;;;;;;;1.10;0.93;;;20.40;99.90;;;;;;5073537;28;20789;-79
2022/09/14 00:31:05;;;;;;;1.07;0.93;;;20.40;99.90;;;;;;5073162;28;20451;-79
2022/09/14 00:33:33;;;;;;;1.20;0.73;;;20.40;99.90;;;;;;5073421;28;20460;-79
2022/09/14 00:36:07;;;;;;;1.00;0.90;;;20.40;99.90;;;;;;5073281;28;20488;-79
2022/09/14 00:38:34;;;;;;;0.70;0.70;;;20.30;99.90;;;;;;5073428;28;20421;-79
2022/09/14 00:41:05;;;;;;;1.10;0.70;;;20.40;99.90;;;;;;5073358;28;20490;-79
2022/09/14 00:43:32;;;;;;;0.77;0.77;;;20.30;99.90;;;;;;5073286;28;20464;-79
2022/09/14 00:46:01;;;;;;;0.83;0.77;;;20.30;99.90;;;;;;5073534;28;20444;-79
2022/09/14 00:48:30;;;;;;;1.07;0.70;;;20.30;99.90;;;;;;5073092;28;20437;-79
2022/09/14 00:50:57;;;;;;;0.83;0.80;;;20.30;99.90;;;;;;5072959;28;20967;-79
2022/09/14 00:53:24;;;;;;;0.73;0.63;;;20.20;99.90;;;;;;5073195;28;20480;-79
2022/09/14 00:55:53;;;;;;;0.70;0.70;;;20.10;99.90;;;;;;5073180;28;20476;-80
2022/09/14 00:58:21;;;;;;;0.90;0.83;;;20.00;99.90;;;;;;5073107;28;20808;-80
2022/09/14 01:00:48;;;;;;;1.33;0.97;;;20.00;99.90;;;;;;5073233;28;20498;-79
2022/09/14 01:03:15;;;;;;;0.70;0.70;;;19.90;99.90;;;;;;5073129;28;20513;-79
2022/09/14 01:05:53;;;;;;;0.70;0.70;;;19.90;99.90;;;;;;5073163;28;20775;-79
2022/09/14 01:08:31;;;;;;;1.27;0.87;;;19.80;99.90;;;;;;5073172;28;20432;-79
2022/09/14 01:11:11;;;;;;;0.80;0.80;;;19.70;99.90;;;;;;5073347;28;20441;-79
2022/09/14 01:13:44;;;;;;;0.80;0.77;;;19.70;99.90;;;;;;5073004;28;20469;-79
2022/09/14 01:16:19;;;;;;;4.00;0.90;;;19.60;99.90;;;;;;5072969;28;20475;-79
2022/09/14 01:18:49;;;;;;;0.93;0.87;;;19.40;99.90;;;;;;5073075;28;20456;-80
2022/09/14 01:21:20;;;;;;;1.30;1.00;;;18.90;99.90;;;;;;5073519;28;20421;-80
2022/09/14 01:23:54;;;;;;;0.50;0.50;;;18.70;99.90;;;;;;5072917;28;20543;-81
2022/09/14 01:26:46;;;;;;;1.03;0.73;;;18.50;99.90;;;;;;5074869;28;20484;-81
2022/09/14 01:29:17;;;;;;;0.63;0.63;;;18.40;99.90;;;;;;5076744;28;20432;-81
2022/09/14 01:31:51;;;;;;;1.17;0.77;;;18.30;99.90;;;;;;5076452;28;20432;-81
2022/09/14 01:34:30;;;;;;;1.37;0.60;;;18.20;99.90;;;;;;5076354;28;20459;-85
2022/09/14 01:37:03;;;;;;;0.90;0.60;;;18.10;99.90;;;;;;5076904;28;20429;-86
2022/09/14 01:39:33;;;;;;;10.03;1.20;;;18.10;99.90;;;;;;5076907;28;20425;-86
2022/09/14 01:42:01;;;;;;;1.00;0.50;;;18.00;99.90;;;;;;5076601;28;20414;-85
2022/09/14 01:44:34;;;;;;;0.93;0.60;;;18.00;99.90;;;;;;5076538;28;20816;-85
2022/09/14 01:47:06;;;;;;;0.57;0.57;;;18.00;99.90;;;;;;5076869;28;20429;-85
2022/09/14 01:49:37;;;;;;;0.93;0.60;;;18.00;99.90;;;;;;5076851;28;20425;-85
2022/09/14 01:52:08;;;;;;;1.33;0.60;;;17.90;99.90;;;;;;5076797;28;20455;-86
2022/09/14 01:54:42;;;;;;;7.43;0.80;;;17.90;99.90;;;;;;5076997;28;20810;-86
2022/09/14 01:57:15;;;;;;;0.83;0.50;;;17.90;99.90;;;;;;5076931;28;20428;-85
2022/09/14 01:59:45;;;;;;;3.40;0.70;;;17.80;99.90;;;;;;5076456;28;20461;-85
2022/09/14 02:02:15;;;;;;;0.60;0.60;;;17.80;99.90;;;;;;5076474;28;20451;-85
2022/09/14 02:04:47;;;;;;;0.57;0.57;;;17.80;99.90;;;;;;5076647;28;20778;-86
2022/09/14 02:07:14;;;;;;;1.43;0.90;;;17.80;99.90;;;;;;5076464;28;20433;-86
2022/09/14 02:09:41;;;;;;;0.80;0.80;;;17.70;99.90;;;;;;5076270;28;20456;-86
2022/09/14 02:12:08;;;;;;;1.37;0.67;;;17.70;99.90;;;;;;5076082;28;20460;-86
2022/09/14 02:14:35;;;;;;;0.57;0.57;;;17.80;99.90;;;;;;5076104;28;20451;-86
2022/09/14 02:17:04;;;;;;;0.67;0.50;;;17.70;99.90;;;;;;5076078;28;20855;-86
2022/09/14 02:19:35;;;;;;;1.13;1.00;;;17.70;99.90;;;;;;5076046;28;20444;-86
2022/09/14 02:22:02;;;;;;;0.67;0.67;;;17.70;99.90;;;;;;5075685;28;20913;-86
2022/09/14 02:24:29;;;;;;;0.50;0.50;;;17.70;99.90;;;;;;5075710;28;20832;-86
2022/09/14 02:26:58;;;;;;;1.47;0.70;;;17.70;99.90;;;;;;5075517;28;20473;-85
2022/09/14 02:29:25;;;;;;;0.80;0.80;;;17.70;99.90;;;;;;5075700;28;20456;-86
2022/09/14 02:32:00;;;;;;;0.93;0.60;;;17.80;99.90;;;;;;5075913;28;20440;-86
2022/09/14 02:34:37;;;;;;;0.70;0.63;;;17.70;99.90;;;;;;5075628;28;20923;-86
2022/09/14 02:37:10;;;;;;;1.90;0.63;;;17.70;99.90;;;;;;5074977;28;20472;-86
2022/09/14 02:39:45;;;;;;;0.60;0.50;;;17.70;99.90;;;;;;5075683;28;20429;-86
2022/09/14 02:42:23;;;;;;;0.60;0.60;;;17.70;99.90;;;;;;5075680;28;20424;-86
2022/09/14 02:44:58;;;;;;;0.60;0.60;;;17.70;99.90;;;;;;5076255;28;20429;-86
2022/09/14 02:47:31;;;;;;;0.90;0.60;;;17.60;99.90;;;;;;5075524;28;20425;-86
2022/09/14 02:50:06;;;;;;;0.60;0.60;;;17.60;99.90;;;;;;5075653;28;20784;-86
2022/09/14 02:52:37;;;;;;;0.67;0.67;;;17.60;99.90;;;;;;5075750;28;20530;-86
2022/09/14 02:55:07;;;;;;;1.20;0.87;;;17.60;99.90;;;;;;5075125;28;20410;-86
2022/09/14 02:58:00;;;;;;;0.80;0.67;;;17.60;99.90;;;;;;5075533;28;20433;-86
2022/09/14 03:00:27;;;;;;;1.33;0.70;;;17.70;99.90;;;;;;5076112;28;20475;-87
2022/09/14 03:02:54;;;;;;;0.70;0.60;;;17.70;99.90;;;;;;5077849;28;20480;-87
2022/09/14 03:05:22;;;;;;;0.60;0.60;;;17.60;99.90;;;;;;5078580;28;20498;-87
2022/09/14 03:07:49;;;;;;;1.03;0.80;;;17.60;99.90;;;;;;5077915;28;20445;-87
2022/09/14 03:10:16;;;;;;;1.93;0.87;;;17.50;99.90;;;;;;5076776;28;20443;-88
2022/09/14 03:12:42;;;;;;;0.70;0.70;;;17.60;99.90;;;;;;5078336;28;20457;-87
2022/09/14 03:15:10;;;;;;;0.60;0.57;;;17.60;99.90;;;;;;5075828;28;20421;-87
2022/09/14 03:17:37;;;;;;;0.70;0.70;;;17.60;99.90;;;;;;5075167;28;20816;-88
2022/09/14 03:20:05;;;;;;;0.63;0.50;;;17.50;99.90;;;;;;5074864;28;20425;-87
2022/09/14 03:22:34;;;;;;;0.93;0.57;;;17.60;99.90;;;;;;5075091;28;20477;-87
2022/09/14 03:25:00;;;;;;;0.90;0.70;;;17.50;99.90;;;;;;5075772;28;20463;-87
2022/09/14 03:27:27;;;;;;;1.50;0.70;;;17.60;99.90;;;;;;5075132;28;20558;-89
2022/09/14 03:29:54;;;;;;;0.90;0.70;;;17.50;99.90;;;;;;5075251;28;20471;-89
2022/09/14 03:32:21;;;;;;;1.00;0.97;;;17.50;99.90;;;;;;5074665;28;20457;-89
2022/09/14 03:34:47;;;;;;;1.03;0.70;;;17.50;99.90;;;;;;5074682;28;20437;-89
2022/09/14 03:37:14;;;;;;;0.70;0.70;;;17.50;99.90;;;;;;5074754;28;20480;-88
2022/09/14 03:39:42;;;;;;;1.67;1.10;;;17.50;99.90;;;;;;5074498;28;20436;-86
2022/09/14 03:42:09;;;;;;;0.90;0.90;;;17.50;99.90;;;;;;5074915;28;20786;-86
2022/09/14 03:44:36;;;;;;;0.70;0.70;;;17.50;99.90;;;;;;5074564;28;20449;-86
2022/09/14 03:47:02;;;;;;;0.70;0.60;;;17.50;99.90;;;;;;5074587;28;20444;-86
2022/09/14 03:49:29;;;;;;;0.80;0.80;;;17.50;99.90;;;;;;5074415;28;20448;-86
2022/09/14 03:51:56;;;;;;;1.23;0.80;;;17.50;99.90;;;;;;5074345;28;20449;-87
2022/09/14 03:54:23;;;;;;;0.70;0.70;;;17.50;99.90;;;;;;5074059;28;20832;-86
2022/09/14 03:56:53;;;;;;;1.13;0.97;;;17.40;99.90;;;;;;5073962;28;20483;-86
2022/09/14 03:59:20;;;;;;;0.93;0.90;;;17.40;99.90;;;;;;5074751;28;20447;-87
2022/09/14 04:01:47;;;;;;;0.50;0.50;;;17.40;99.90;;;;;;5074697;28;20445;-87
2022/09/14 04:04:13;;;;;;;1.20;0.63;;;17.40;99.90;;;;;;5074498;28;20469;-87
2022/09/14 04:06:41;;;;;;;0.87;0.80;;;17.40;99.90;;;;;;5074688;28;20437;-85
2022/09/14 04:09:08;;;;;;;1.93;0.90;;;17.40;99.90;;;;;;5074136;28;20532;-86
2022/09/14 04:11:34;;;;;;;0.53;0.53;;;17.40;99.90;;;;;;5074196;28;20937;-87
2022/09/14 04:14:04;;;;;;;0.80;0.60;;;17.40;99.90;;;;;;5074029;28;20479;-86
2022/09/14 04:16:32;;;;;;;0.90;0.80;;;17.50;99.90;;;;;;5073722;28;20844;-86
2022/09/14 04:18:58;;;;;;;0.77;0.60;;;17.50;99.90;;;;;;5073939;28;20433;-87
2022/09/14 04:21:26;;;;;;;0.97;0.97;;;17.50;99.90;;;;;;5073834;28;20441;-87
2022/09/14 04:23:53;;;;;;;0.60;0.60;;;17.50;99.90;;;;;;5073984;28;20476;-87
2022/09/14 04:26:22;;;;;;;0.63;0.63;;;17.50;99.90;;;;;;5073980;28;20473;-87
2022/09/14 04:28:49;;;;;;;1.60;0.97;;;17.60;99.90;;;;;;5073956;28;20437;-86
2022/09/14 04:31:18;;;;;;;0.60;0.50;;;17.60;99.90;;;;;;5073863;28;20441;-86
2022/09/14 04:33:48;;;;;;;0.60;0.60;;;17.60;99.90;;;;;;5073774;28;20568;-86
2022/09/14 04:36:16;;;;;;;1.63;0.77;;;17.60;99.90;;;;;;5073716;28;20481;-86
2022/09/14 04:38:43;;;;;;;0.70;0.70;;;17.60;99.90;;;;;;5073667;28;20464;-86
2022/09/14 04:41:12;;;;;;;0.73;0.73;;;17.70;99.90;;;;;;5074089;28;20452;-86
2022/09/14 04:43:39;;;;;;;1.27;0.80;;;17.60;99.90;;;;;;5073519;28;20979;-86
2022/09/14 04:46:09;;;;;;;3.30;1.10;;;17.60;99.90;;;;;;5073433;28;20437;-86
2022/09/14 04:48:37;;;;;;;1.43;0.90;;;17.70;99.90;;;;;;5073622;28;20814;-88
2022/09/14 04:51:06;;;;;;;0.60;0.60;;;17.70;99.90;;;;;;5073382;28;20456;-87
2022/09/14 04:53:34;;;;;;;1.10;0.97;;;17.60;99.90;;;;;;5073508;28;20472;-87
2022/09/14 04:56:01;;;;;;;1.20;1.10;;;17.60;99.90;;;;;;5073303;28;20472;-87
2022/09/14 04:58:28;;;;;;;1.53;1.30;;;17.60;99.90;;;;;;5073317;28;21023;-87
2022/09/14 05:00:55;;;;;;;1.03;0.93;;;17.60;99.90;;;;;;5075209;28;20453;-87
2022/09/14 05:03:22;;;;;;;1.87;0.97;;;17.60;99.90;;;;;;5077539;28;20829;-86
2022/09/14 05:05:50;;;;;;;1.10;1.00;;;17.60;99.90;;;;;;5077685;28;20460;-86
2022/09/14 05:08:17;;;;;;;1.10;0.67;;;17.70;99.90;;;;;;5078310;28;20449;-86
2022/09/14 05:10:43;;;;;;;0.60;0.60;;;17.70;99.90;;;;;;5077240;28;20453;-87
2022/09/14 05:13:10;;;;;;;1.90;0.70;;;17.70;99.90;;;;;;5077677;28;20840;-87
2022/09/14 05:15:37;;;;;;;0.83;0.63;;;17.70;99.90;;;;;;5077727;28;20463;-88
2022/09/14 05:18:04;;;;;;;3.50;1.87;;;17.70;99.90;;;;;;5077566;28;20800;-87
2022/09/14 05:20:31;;;;;;;0.80;0.73;;;17.70;99.90;;;;;;5077568;28;20453;-88
2022/09/14 05:22:59;;;;;;;2.13;0.70;;;17.70;99.90;;;;;;5077384;28;20461;-88
2022/09/14 05:25:25;;;;;;;1.07;0.70;;;17.70;99.90;;;;;;5077592;28;20957;-88
2022/09/14 05:27:52;;;;;;;2.60;1.23;;;17.80;99.90;;;;;;5077146;28;20480;-88
2022/09/14 05:30:19;;;;;;;1.70;0.90;;;17.80;99.90;;;;;;5077370;28;20452;-88
2022/09/14 05:32:46;;;;;;;1.17;0.80;;;17.80;99.90;;;;;;5077228;28;20464;-88
2022/09/14 05:35:12;;;;;;;0.90;0.80;;;17.80;99.90;;;;;;5077163;28;20437;-88
2022/09/14 05:37:39;;;;;;;1.70;0.97;;;17.80;99.90;;;;;;5077184;28;20487;-87
2022/09/14 05:40:09;;;;;;;2.00;0.70;;;17.90;99.90;;;;;;5077362;28;20447;-90
2022/09/14 05:42:35;;;;;;;0.83;0.80;;;17.90;99.90;;;;;;5077028;28;20979;-88
2022/09/14 05:45:02;;;;;;;1.10;1.00;;;17.90;99.90;;;;;;5077108;28;20803;-88
2022/09/14 05:47:30;;;;;;;0.70;0.50;;;17.90;99.90;;;;;;5077323;28;20452;-89
2022/09/14 05:49:57;;;;;;;1.10;0.73;;;17.90;99.90;;;;;;5077408;28;20456;-90
2022/09/14 05:52:24;;;;;;;1.70;0.50;;;17.90;99.90;;;;;;5077036;28;20464;-89
2022/09/14 05:54:51;;;;;;;2.00;0.70;;;17.90;99.90;;;;;;5077475;28;20808;-89
2022/09/14 05:57:19;;;;;;;5.90;1.00;;;17.90;99.90;;;;;;5077276;28;20484;-90
2022/09/14 05:59:45;;;;;;;0.50;0.50;;;17.90;99.90;;;;;;5077489;28;20821;-90
2022/09/14 06:02:12;;;;;;;0.97;0.70;;;17.90;99.90;;;;;;5077035;28;20452;-89
2022/09/14 06:04:39;;;;;;;0.77;0.73;;;17.90;99.90;;;;;;5076618;28;20449;-88
2022/09/14 06:07:06;;;;;;;0.70;0.70;;;18.00;99.90;;;;;;5077151;28;20478;-89
2022/09/14 06:09:32;;;;;;;0.67;0.63;;;18.10;99.90;;;;;;5077012;28;20425;-89
2022/09/14 06:11:59;;;;;;;2.70;1.13;;;18.10;99.90;;;;;;5076405;28;20559;-89
2022/09/14 06:14:27;;;;;;;1.00;0.70;;;18.20;99.90;;;;;;5077074;28;20441;-90
2022/09/14 06:16:54;;;;;;;0.90;0.90;;;18.20;99.90;;;;;;5076808;28;20476;-89
2022/09/14 06:19:21;;;;;;;0.70;0.70;;;18.30;99.90;;;;;;5076868;28;20445;-89
2022/09/14 06:21:47;;;;;;;0.70;0.70;;;18.30;99.90;;;;;;5076715;28;20463;-89
2022/09/14 06:24:14;;;;;;;1.20;0.80;;;18.30;99.90;;;;;;5076830;28;20480;-89
2022/09/14 06:26:41;;;;;;;0.70;0.60;;;18.40;99.90;;;;;;5076357;28;20477;-89
2022/09/14 06:29:08;;;;;;;0.70;0.70;;;18.40;99.90;;;;;;5076576;28;20430;-89
2022/09/14 06:31:36;;;;;;;1.47;0.70;;;18.50;99.90;;;;;;5076344;28;20438;-89
2022/09/14 06:34:03;;;;;;;0.80;0.70;;;18.50;99.90;;;;;;5076626;28;20976;-90
2022/09/14 06:36:30;;;;;;;1.13;0.70;;;18.60;99.90;;;;;;5076178;28;20484;-81
2022/09/14 06:38:58;;;;;;;0.80;0.67;;;18.60;99.90;;;;;;5075667;28;20453;-81
2022/09/14 06:41:29;;;;;;;3.70;0.60;;;18.70;99.90;;;;;;5075490;28;20441;-81
2022/09/14 06:43:56;;;;;;;0.83;0.83;;;18.70;99.90;;;;;;5075344;28;20465;-80
2022/09/14 06:46:25;;;;;;;1.20;0.70;;;18.80;99.90;;;;;;5075111;28;20952;-80
2022/09/14 06:48:56;;;;;;;1.33;0.90;;;18.90;99.90;;;;;;5075112;28;20433;-80
2022/09/14 06:51:25;;;;;;;1.00;0.77;;;18.90;99.90;;;;;;5075060;28;20414;-80
2022/09/14 06:53:52;;;;;;;1.07;0.97;;;18.90;99.90;;;;;;5075103;28;20476;-79
2022/09/14 06:56:20;;;;;;;1.60;0.80;;;19.00;99.90;;;;;;5075076;28;20506;-79
2022/09/14 06:58:48;;;;;;;0.60;0.60;;;19.00;99.90;;;;;;5075201;28;20437;-79
2022/09/14 07:01:18;;;;;;;0.80;0.80;;;19.00;99.90;;;;;;5075051;28;20460;-79
2022/09/14 07:03:45;;;;;;;1.87;0.93;;;19.10;99.90;;;;;;5074962;28;20861;-79
2022/09/14 07:06:15;;;;;;;0.73;0.60;;;19.20;99.90;;;;;;5074945;28;20444;-79
2022/09/14 07:08:43;;;;;;;0.73;0.73;;;19.20;99.90;;;;;;5075176;28;20787;-76
2022/09/14 07:11:11;;;;;;;0.60;0.60;;;19.30;99.90;;;;;;5074602;28;20439;-76
2022/09/14 07:13:39;;;;;;;1.57;0.70;;;19.40;99.90;;;;;;5074747;28;20469;-76
2022/09/14 07:16:06;;;;;;;1.10;0.67;;;19.40;99.90;;;;;;5074855;28;20460;-76
2022/09/14 07:18:34;;;;;;;0.80;0.80;;;19.40;99.90;;;;;;5074364;28;21033;-76
2022/09/14 07:21:05;;;;;;;1.40;0.80;;;19.40;99.90;;;;;;5074663;28;20797;-76
2022/09/14 07:23:35;;;;;;;1.53;0.60;;;19.50;99.90;;;;;;5074504;28;20469;-76
2022/09/14 07:26:03;;;;;;;0.80;0.70;;;19.60;99.90;;;;;;5074036;28;20453;-76
2022/09/14 07:28:31;;;;;;;0.73;0.70;;;19.60;99.90;;;;;;5074419;28;20547;-76
2022/09/14 07:30:58;;;;;;;0.63;0.63;;;19.60;99.90;;;;;;5074385;28;20453;-76
2022/09/14 07:33:25;;;;;;;3.13;1.00;;;19.70;99.90;;;;;;5074307;28;20811;-76
2022/09/14 07:35:52;;;;;;;1.27;0.90;;;19.70;99.90;;;;;;5074241;28;20468;-76
2022/09/14 07:38:19;;;;;;;0.80;0.80;;;19.80;99.90;;;;;;5074461;28;20534;-76
2022/09/14 07:40:47;;;;;;;1.03;1.03;;;19.90;99.90;;;;;;5074224;28;20449;-75
2022/09/14 07:43:14;;;;;;;1.50;1.00;;;20.00;99.90;;;;;;5074096;28;20479;-76
2022/09/14 07:45:41;;;;;;;1.47;1.10;;;20.10;99.90;;;;;;5074162;28;20444;-76
2022/09/14 07:48:07;;;;;;;1.47;1.10;;;20.30;99.90;;;;;;5073786;28;20967;-76
2022/09/14 07:50:35;;;;;;;1.07;0.80;;;20.30;99.90;;;;;;5074063;28;20448;-76
2022/09/14 07:53:02;;;;;;;0.80;0.60;;;20.40;99.90;;;;;;5074012;28;20468;-76
2022/09/14 07:55:29;;;;;;;2.13;1.00;;;20.50;99.90;;;;;;5074047;28;20478;-76
2022/09/14 07:57:58;;;;;;;1.80;1.00;;;20.50;99.90;;;;;;5073653;28;20994;-76
2022/09/14 08:00:25;;;;;;;1.07;0.97;;;20.60;99.90;;;;;;5073896;28;20502;-76
2022/09/14 08:02:52;;;;;;;0.93;0.60;;;20.70;99.90;;;;;;5074021;28;20469;-76
2022/09/14 08:05:20;;;;;;;0.80;0.80;;;20.80;99.90;;;;;;5073466;28;21003;-76
2022/09/14 08:07:47;;;;;;;4.30;1.03;;;20.90;99.90;;;;;;5073670;28;20448;-78
2022/09/14 08:10:13;;;;;;;0.90;0.70;;;21.00;99.90;;;;;;5073660;28;20959;-76
2022/09/14 08:12:40;;;;;;;1.00;1.00;;;21.10;99.90;;;;;;5073812;28;20483;-76
2022/09/14 08:15:10;;;;;;;0.80;0.80;;;21.10;99.90;;;;;;5073607;28;20614;-76
2022/09/14 08:17:37;;;;;;;0.70;0.70;;;21.10;99.90;;;;;;5073610;28;20472;-76
2022/09/14 08:20:05;;;;;;;0.80;0.80;;;21.20;99.90;;;;;;5074312;28;20551;-76
2022/09/14 08:22:31;;;;;;;0.83;0.70;;;21.20;99.90;;;;;;5073870;28;20563;-76
2022/09/14 08:25:17;;;;;;;0.87;0.87;;;21.30;99.90;;;;;;5073085;28;20468;-76
2022/09/14 08:27:45;;;;;;;4.43;0.90;;;21.30;99.90;;;;;;5073119;28;20477;-77
2022/09/14 08:30:15;;;;;;;1.27;0.97;;;21.50;99.90;;;;;;5073524;28;20436;-76
2022/09/14 08:32:46;;;;;;;0.73;0.70;;;21.50;99.90;;;;;;5073186;28;20917;-77
2022/09/14 08:35:15;;;;;;;1.77;0.90;;;21.50;99.90;;;;;;5072448;28;20457;-76
2022/09/14 08:37:44;;;;;;;0.97;0.97;;;21.50;99.90;;;;;;5073209;28;20541;-77
2022/09/14 08:40:20;;;;;;;0.77;0.77;;;21.40;99.90;;;;;;5072915;28;20493;-77
2022/09/14 08:42:48;;;;;;;1.03;0.80;;;21.40;99.90;;;;;;5073285;28;20567;-76
2022/09/14 08:45:17;;;;;;;1.73;1.07;;;21.30;99.90;;;;;;5073131;28;20446;-77
2022/09/14 08:47:44;;;;;;;3.03;1.33;;;21.10;99.90;;;;;;5073308;28;20444;-77
2022/09/14 08:50:16;;;;;;;1.20;0.53;;;21.00;99.90;;;;;;5073297;28;20448;-76
2022/09/14 08:52:45;;;;;;;1.40;0.90;;;21.10;99.90;;;;;;5073447;28;20514;-76
2022/09/14 08:55:25;;;;;;;0.67;0.67;;;21.20;99.90;;;;;;5072936;28;20547;-76
2022/09/14 08:58:00;;;;;;;0.53;0.50;;;21.40;99.90;;;;;;5071402;28;20468;-76
2022/09/14 09:00:37;;;;;;;0.90;0.60;;;21.50;99.90;;;;;;5072231;28;20423;-76
2022/09/14 09:03:31;;;;;;;0.90;0.67;;;21.60;99.90;;;;;;5072506;28;20478;-76
2022/09/14 09:06:06;;;;;;;1.07;0.67;;;21.90;99.90;;;;;;5072869;28;20925;-76
2022/09/14 09:08:37;;;;;;;0.80;0.70;;;22.30;99.90;;;;;;5073609;28;20443;-77
2022/09/14 09:11:06;;;;;;;4.23;0.80;;;22.50;99.90;;;;;;5073141;28;20428;-77
2022/09/14 09:13:37;;;;;;;0.70;0.70;;;22.70;99.90;;;;;;5073038;28;20472;-77
2022/09/14 09:16:10;;;;;;;0.70;0.60;;;22.80;99.90;;;;;;5073073;28;20444;-75
2022/09/14 09:18:42;;;;;;;1.00;0.90;;;23.00;99.90;;;;;;5073062;28;20468;-77
2022/09/14 09:21:23;;;;;;;1.83;0.90;;;23.10;99.90;;;;;;5072841;28;20414;-77
2022/09/14 09:23:50;;;;;;;0.63;0.63;;;23.20;99.90;;;;;;5072967;28;20464;-77
2022/09/14 09:26:24;;;;;;;0.93;0.77;;;23.30;99.90;;;;;;5072463;28;20214;-77
2022/09/14 09:28:54;;;;;;;0.70;0.60;;;23.40;99.90;;;;;;5073688;28;20189;-77
2022/09/14 09:31:27;;;;;;;0.90;0.80;;;23.40;99.90;;;;;;5072574;28;20440;-78
2022/09/14 09:33:54;;;;;;;0.90;0.90;;;23.40;99.90;;;;;;5072908;28;20709;-78
2022/09/14 09:36:21;;;;;;;1.00;0.80;;;23.50;99.90;;;;;;5072884;28;20206;-75
2022/09/14 09:38:48;;;;;;;0.93;0.93;;;23.70;99.90;;;;;;5072806;28;20233;-75
2022/09/14 09:41:20;;;;;;;1.13;0.70;;;23.90;99.90;;;;;;5072509;28;20198;-78
2022/09/14 09:43:59;;;;;;;0.70;0.70;;;24.00;99.90;;;;;;5072451;28;20222;-75
2022/09/14 09:46:28;;;;;;;0.95;0.85;;;24.20;99.90;;;;;;5074272;28;20584;-77
2022/09/14 09:48:55;;;;;;;0.50;0.50;;;24.50;99.90;;;;;;5076434;28;20209;-78
2022/09/14 09:51:28;;;;;;;0.75;0.70;;;24.70;99.90;;;;;;5076403;28;20206;-77
2022/09/14 09:53:58;;;;;;;0.85;0.80;;;25.00;99.90;;;;;;5076020;28;20223;-75
2022/09/14 09:56:28;;;;;;;1.10;1.00;;;25.00;99.90;;;;;;5076279;28;20678;-78
2022/09/14 09:58:55;;;;;;;2.05;0.63;;;24.90;99.90;;;;;;5076165;28;20218;-78
2022/09/14 10:01:29;;;;;;;1.02;0.80;;;24.90;99.90;;;;;;5076190;28;20284;-77
2022/09/14 10:04:15;;;;;;;1.65;0.95;;;25.10;99.90;;;;;;5075894;28;20217;-75
2022/09/14 10:06:44;;;;;;;1.52;0.90;;;25.20;99.90;;;;;;5076158;28;20581;-77
2022/09/14 10:09:16;;;;;;;0.68;0.63;;;25.20;99.90;;;;;;5075974;28;20198;-77
2022/09/14 10:11:44;;;;;;;0.80;0.60;;;25.30;99.90;;;;;;5075807;28;20206;-77
2022/09/14 10:14:25;;;;;;;0.70;0.70;;;25.00;99.90;;;;;;5075895;28;20232;-77
2022/09/14 10:17:03;;;;;;;0.73;0.73;;;24.90;99.90;;;;;;5075963;28;20191;-75
2022/09/14 10:19:31;;;;;;;0.88;0.88;;;24.80;99.90;;;;;;5075924;28;20210;-75
2022/09/14 10:22:04;;;;;;;1.33;0.77;;;24.70;99.90;;;;;;5075848;28;20208;-76
2022/09/14 10:24:34;;;;;;;0.70;0.70;;;24.70;99.90;;;;;;5075775;28;20186;-76
2022/09/14 10:27:00;;;;;;;0.75;0.70;;;24.60;99.90;;;;;;5075200;28;20226;-75
2022/09/14 10:29:36;;;;;;;0.70;0.70;;;24.50;99.90;;;;;;5075373;28;20662;-76
2022/09/14 10:32:14;;;;;;;3.10;0.70;;;24.50;99.90;;;;;;5075650;28;20193;-76
2022/09/14 10:34:42;;;;;;;0.70;0.70;;;24.50;99.90;;;;;;5075640;28;20190;-76
2022/09/14 10:37:24;;;;;;;1.05;0.95;;;24.40;99.90;;;;;;5075886;28;20206;-76
2022/09/14 10:39:59;;;;;;;0.88;0.80;;;24.40;99.90;;;;;;5075554;28;20210;-76
2022/09/14 10:42:33;;;;;;;0.88;0.88;;;24.40;99.90;;;;;;5075390;28;20224;-76
2022/09/14 10:45:15;;;;;;;1.75;1.00;;;24.40;99.90;;;;;;5075704;28;20187;-76
2022/09/14 10:47:57;;;;;;;0.60;0.60;;;24.40;99.90;;;;;;5075365;28;20193;-76
2022/09/14 10:50:33;;;;;;;1.23;1.02;;;24.40;99.90;;;;;;5074767;28;20595;-76
2022/09/14 10:53:10;;;;;;;0.65;0.65;;;24.40;99.90;;;;;;5075001;28;20225;-76
2022/09/14 10:55:43;;;;;;;0.90;0.90;;;24.50;99.90;;;;;;5075220;28;20225;-76
2022/09/14 10:58:24;;;;;;;0.80;0.80;;;24.60;99.90;;;;;;5074399;28;20210;-76
2022/09/14 11:00:59;;;;;;;0.70;0.70;;;24.50;99.90;;;;;;5075120;28;20220;-76
2022/09/14 11:03:38;;;;;;;4.10;1.00;;;24.60;99.90;;;;;;5074972;28;20221;-76
2022/09/14 11:06:14;;;;;;;0.95;0.70;;;24.60;99.90;;;;;;5074982;28;20190;-75
2022/09/14 11:08:46;;;;;;;2.17;0.90;;;24.70;99.90;;;;;;5074862;28;20178;-76
2022/09/14 11:11:31;;;;;;;0.70;0.70;;;25.00;99.90;;;;;;5074648;28;20186;-76
2022/09/14 11:14:08;;;;;;;0.47;0.43;;;25.10;99.90;;;;;;5074822;28;20226;-76
2022/09/14 11:16:50;;;;;;;0.85;0.85;;;25.20;99.90;;;;;;5074850;28;20197;-76
2022/09/14 11:19:23;;;;;;;0.63;0.63;;;25.20;99.90;;;;;;5074412;28;20301;-76
2022/09/14 11:21:56;;;;;;;1.00;0.70;;;25.20;99.90;;;;;;5074701;28;20560;-76
2022/09/14 11:24:28;;;;;;;0.60;0.60;;;25.30;99.90;;;;;;5075249;28;20226;-76
2022/09/14 11:27:01;;;;;;;1.15;0.60;;;25.20;99.90;;;;;;5074236;28;20233;-76
2022/09/14 11:29:31;;;;;;;0.90;0.75;;;25.10;99.90;;;;;;5074539;28;20225;-75
2022/09/14 11:32:03;;;;;;;0.60;0.60;;;25.10;99.90;;;;;;5074481;28;20216;-76
2022/09/14 11:34:35;;;;;;;0.60;0.50;;;25.10;99.90;;;;;;5075026;28;20197;-75
2022/09/14 11:37:07;;;;;;;0.70;0.70;;;25.20;99.90;;;;;;5074418;28;20193;-76
2022/09/14 11:39:38;;;;;;;0.60;0.60;;;25.10;99.90;;;;;;5074517;28;20226;-76
2022/09/14 11:42:09;;;;;;;1.40;0.80;;;25.10;99.90;;;;;;5074234;28;20186;-75
2022/09/14 11:44:38;;;;;;;0.70;0.70;;;25.00;99.90;;;;;;5074285;28;20217;-76
2022/09/14 11:47:08;;;;;;;0.85;0.60;;;24.90;99.90;;;;;;5073936;28;20198;-75
2022/09/14 11:49:56;;;;;;;0.95;0.50;;;24.90;99.90;;;;;;5073889;28;20634;-75
2022/09/14 11:52:24;;;;;;;1.35;0.70;;;24.70;99.90;;;;;;5074064;28;20333;-75
2022/09/14 11:54:52;;;;;;;0.60;0.60;;;24.70;99.90;;;;;;5074037;28;20196;-76
2022/09/14 11:57:22;;;;;;;2.97;0.80;;;24.60;99.90;;;;;;5073870;28;20667;-76
2022/09/14 11:59:52;;;;;;;4.57;0.98;;;24.60;99.90;;;;;;5073935;28;20206;-76
2022/09/14 12:03:00;;;;;;;1.95;0.88;;;24.60;99.90;;;;;;5073900;28;20186;-75
2022/09/14 12:05:34;;;;;;;0.55;0.55;;;24.50;99.90;;;;;;5074185;28;20182;-75
2022/09/14 12:08:21;;;;;;;0.98;0.77;;;24.40;99.90;;;;;;5073797;28;20205;-75
2022/09/14 12:11:18;;;;;;;0.70;0.70;;;24.40;99.90;;;;;;5072694;28;20201;-75
2022/09/14 12:13:46;;;;;;;0.70;0.70;;;24.30;99.90;;;;;;5063428;28;20258;-75
2022/09/14 12:16:13;;;;;;;0.60;0.60;;;24.30;99.90;;;;;;5073711;28;20206;-75
2022/09/14 12:18:43;;;;;;;1.58;0.60;;;24.40;99.90;;;;;;5073605;28;20229;-75
2022/09/14 12:21:21;;;;;;;0.73;0.70;;;24.30;99.90;;;;;;5073335;28;20696;-76
2022/09/14 12:23:55;;;;;;;2.75;0.68;;;24.10;99.90;;;;;;5073260;28;20731;-76
2022/09/14 12:26:32;;;;;;;0.67;0.67;;;23.80;99.90;;;;;;5073798;28;20268;-77
2022/09/14 12:29:35;;;;;;;0.80;0.70;;;23.40;99.90;;;;;;5073773;28;20297;-77
2022/09/14 12:32:18;;;;;;;1.27;0.90;;;22.90;99.90;;;;;;5069949;28;20198;-78
2022/09/14 12:34:45;;;;;;;1.17;1.03;;;22.50;99.90;;;;;;5073464;28;20456;-78
2022/09/14 12:37:30;;;;;;;0.90;0.70;;;22.00;99.90;;;;;;5073242;28;20506;-78
2022/09/14 12:40:36;;;;;;;0.87;0.73;;;21.70;99.90;;;;;;5073389;28;20468;-78
2022/09/14 12:43:48;;;;;;;0.60;0.60;;;21.40;99.90;;;;;;5073402;28;20479;-79
2022/09/14 12:46:37;;;;;;;2.70;1.10;;;21.10;99.90;;;;;;5073393;28;20768;-77
2022/09/14 12:49:14;;;;;;;1.73;0.87;;;20.80;99.90;;;;;;5073247;28;20437;-77
2022/09/14 12:51:47;;;;;;;0.50;0.43;;;20.70;99.90;;;;;;5073390;28;20433;-76
2022/09/14 12:54:25;;;;;;;1.80;0.90;;;20.60;99.90;;;;;;5072921;28;20475;-76
2022/09/14 12:57:02;;;;;;;1.00;0.70;;;20.40;99.90;;;;;;5072981;28;20421;-77
2022/09/14 12:59:38;;;;;;;0.60;0.57;;;20.30;99.90;;;;;;5072882;28;20472;-77
2022/09/14 13:02:34;;;;;;;0.60;0.60;;;20.30;99.90;;;;;;5073115;28;20433;-78
2022/09/14 13:05:06;;;;;;;1.20;0.90;;;20.20;99.90;;;;;;5073392;28;20448;-80
2022/09/14 13:07:36;;;;;;;5.40;0.90;;;20.30;99.90;;;;;;5073091;28;20448;-79